Ashland, New Jersey
Current Conditions -  °F | °C
As of 2:54 PM on Friday 21 Nov 2014 (Local Time) from KVAY Reporting Station
Clear Clear  
Wind Chill: 28°   Ceiling: Unl
Heat Index: 36°   Visibility: 10mi
Dew Point:   Wind: 13mph
Humidity: 30%   Direction: 300°WNW
Pressure: 30.39"   Gusts: 22mph
Location:  39.9056°N, 74.9993°W
Report Text: KVAY 211954Z AUTO 30011G19KT 10SM CLR 02/M14 A3039 RMK AO2 SLP292 T00221139
Loading
Personal Weather Stations






























Interactive Weather Map New forecast layout! Learn more

10-Day Weather Forecast

Advertisements
Track Severe Weather on mobile